Time;durP1;ratioP1;P1;durP2;ratioP2;P2;SDS_P1;SDS_P2;PMS_P1;PMS_P2;Temp;Humidity;BMP_temperature;BMP_pressure;BME280_temperature;BME280_humidity;BME280_pressure;Samples;Min_cycle;Max_cycle;Signal;HPM_P1;HPM_P2
2022/05/18 00:00:20;;;;;;;16.48;2.10;;;;;;;24.33;50.10;100096.84;7309714;19;129665;-39
2022/05/18 00:02:45;;;;;;;20.85;2.28;;;;;;;24.31;50.69;100090.09;7310872;19;129156;-36
2022/05/18 00:05:10;;;;;;;33.17;3.72;;;;;;;24.32;50.68;100097.81;7313786;19;154715;-40
2022/05/18 00:07:36;;;;;;;40.73;4.40;;;;;;;23.94;46.69;100099.72;7310463;19;149060;-40
2022/05/18 00:10:02;;;;;;;22.70;2.47;;;;;;;23.69;47.05;100102.94;7316212;19;130465;-41
2022/05/18 00:12:27;;;;;;;25.70;2.53;;;;;;;23.56;47.13;100099.78;7314969;19;129581;-41
2022/05/18 00:14:53;;;;;;;16.45;1.70;;;;;;;23.52;46.66;100096.59;7315500;19;156864;-36
2022/05/18 00:17:19;;;;;;;19.30;1.95;;;;;;;23.51;46.50;100100.22;7312878;19;129059;-40
2022/05/18 00:19:44;;;;;;;68.30;6.18;;;;;;;23.52;46.35;100109.72;7309630;19;158152;-38
2022/05/18 00:22:10;;;;;;;15.75;1.98;;;;;;;23.55;45.85;100101.56;7312438;19;159310;-41
2022/05/18 00:24:35;;;;;;;33.38;3.47;;;;;;;23.56;46.38;100108.50;7315096;19;130635;-38
2022/05/18 00:27:03;;;;;;;22.23;2.47;;;;;;;23.69;47.88;100095.06;7312368;19;129079;-38
2022/05/18 00:29:29;;;;;;;22.23;2.55;;;;;;;23.97;49.47;100102.88;7315831;19;130216;-38
2022/05/18 00:31:54;;;;;;;19.95;2.22;;;;;;;24.00;49.56;100100.00;7315636;19;130338;-38
2022/05/18 00:34:19;;;;;;;33.30;3.40;;;;;;;24.14;49.98;100112.69;7315431;19;130065;-38
2022/05/18 00:36:44;;;;;;;23.03;2.90;;;;;;;24.20;49.77;100109.47;7311178;19;154043;-36
2022/05/18 00:39:10;;;;;;;26.90;2.83;;;;;;;24.26;50.15;100119.41;7314691;19;158425;-38
2022/05/18 00:41:35;;;;;;;26.50;3.00;;;;;;;24.30;50.14;100115.53;7315727;19;130141;-37
2022/05/18 00:44:00;;;;;;;23.47;2.70;;;;;;;24.31;49.82;100117.16;7315698;19;129856;-37
2022/05/18 00:46:26;;;;;;;23.07;2.77;;;;;;;24.35;50.36;100122.97;7312149;19;140347;-40
2022/05/18 00:48:53;;;;;;;19.87;2.20;;;;;;;24.33;51.00;100125.75;7313909;19;135908;-41
2022/05/18 00:51:21;;;;;;;26.80;2.85;;;;;;;24.33;51.03;100125.75;7315425;19;130881;-38
2022/05/18 00:54:12;;;;;;;24.38;2.72;;;;;;;24.33;50.38;100130.16;7313693;19;154950;-40
2022/05/18 00:56:45;;;;;;;44.05;4.30;;;;;;;23.59;46.67;100123.97;7311653;19;130210;-37
2022/05/18 00:59:55;;;;;;;32.22;3.40;;;;;;;23.54;47.03;100134.03;7314583;19;130516;-41
2022/05/18 01:02:23;;;;;;;20.35;2.92;;;;;;;23.54;46.39;100135.84;7309526;19;130325;-36
2022/05/18 01:04:51;;;;;;;15.27;1.73;;;;;;;23.46;46.64;100112.09;7313249;19;129454;-37
2022/05/18 01:07:38;;;;;;;30.80;3.13;;;;;;;23.52;46.23;100133.34;7311343;19;129086;-36
2022/05/18 01:10:05;;;;;;;37.63;3.70;;;;;;;23.55;46.14;100138.31;7314085;19;130783;-38
2022/05/18 01:12:31;;;;;;;46.97;4.57;;;;;;;23.55;45.81;100137.50;7311490;19;129582;-43
2022/05/18 01:15:06;;;;;;;15.18;1.88;;;;;;;23.83;50.12;100145.34;7312089;19;129384;-37
2022/05/18 01:17:36;;;;;;;28.15;3.05;;;;;;;24.02;49.57;100147.13;7312476;19;128919;-38
2022/05/18 01:20:06;;;;;;;30.50;3.25;;;;;;;24.14;50.03;100146.84;7313922;19;129126;-40
2022/05/18 01:22:50;;;;;;;74.57;6.97;;;;;;;24.21;49.70;100147.91;7311988;19;130307;-43
2022/05/18 01:25:59;;;;;;;49.75;5.22;;;;;;;24.22;50.06;100131.19;7309935;19;155545;-44
2022/05/18 01:28:28;;;;;;;;;;;;;;;24.37;50.17;100142.91;7311760;19;130072;-39
2022/05/18 01:30:54;;;;;;;32.17;3.15;;;;;;;24.31;50.05;100148.72;7313111;19;132273;-38
2022/05/18 01:33:21;;;;;;;19.90;2.25;;;;;;;24.31;50.80;100151.34;7313609;19;140014;-37
2022/05/18 01:35:48;;;;;;;36.38;3.35;;;;;;;24.30;50.55;100159.38;7312537;19;130492;-38
2022/05/18 01:38:13;;;;;;;;;;;;;;;24.37;50.44;100153.41;7312597;19;130238;-37
2022/05/18 01:40:48;;;;;;;20.13;2.35;;;;;;;24.35;51.10;100159.75;7312645;19;129241;-39
2022/05/18 01:43:20;;;;;;;37.28;3.63;;;;;;;23.73;46.82;100156.84;7313694;19;131770;-38
2022/05/18 01:45:50;;;;;;;62.53;5.35;;;;;;;23.59;46.73;100155.47;7307501;19;129719;-38
2022/05/18 01:48:18;;;;;;;32.72;3.45;;;;;;;23.54;46.44;100162.91;7306532;19;129439;-36
2022/05/18 01:50:44;;;;;;;23.23;2.45;;;;;;;23.51;46.08;100149.25;7314492;19;130144;-37
2022/05/18 01:53:10;;;;;;;33.33;3.58;;;;;;;23.50;46.23;100155.47;7311854;19;139819;-38
2022/05/18 01:55:35;;;;;;;46.63;4.50;;;;;;;23.48;46.60;100154.78;7311401;19;129044;-37
2022/05/18 01:58:01;;;;;;;24.77;2.70;;;;;;;23.54;46.04;100168.16;7312384;19;129991;-38
2022/05/18 02:00:27;;;;;;;22.30;2.13;;;;;;;23.54;45.92;100168.16;7313473;19;129698;-38
2022/05/18 02:02:53;;;;;;;23.60;2.37;;;;;;;23.90;48.66;100172.69;7310353;19;159208;-39
2022/05/18 02:05:18;;;;;;;84.07;7.53;;;;;;;23.95;49.38;100157.34;7307263;19;155321;-41
2022/05/18 02:07:43;;;;;;;22.57;2.57;;;;;;;24.12;49.66;100169.81;7312422;19;129829;-39
2022/05/18 02:10:10;;;;;;;30.30;3.33;;;;;;;24.18;49.62;100173.66;7312948;19;129762;-39
2022/05/18 02:12:36;;;;;;;36.05;3.40;;;;;;;24.14;49.50;100165.25;7311971;19;129381;-37
2022/05/18 02:15:03;;;;;;;22.27;2.22;;;;;;;24.29;50.12;100174.31;7312114;19;129005;-39
2022/05/18 02:17:29;;;;;;;14.73;2.08;;;;;;;24.23;49.88;100153.00;7310946;19;129048;-39
2022/05/18 02:19:55;;;;;;;22.63;2.53;;;;;;;24.29;50.21;100165.59;7312699;19;130402;-40
2022/05/18 02:22:21;;;;;;;36.88;3.50;;;;;;;24.32;50.16;100170.56;7311933;19;130822;-38
2022/05/18 02:24:46;;;;;;;31.93;3.53;;;;;;;24.37;50.18;100170.97;7310827;19;154336;-38
2022/05/18 02:27:11;;;;;;;15.88;2.13;;;;;;;24.25;49.70;100165.06;7307050;19;154394;-40
2022/05/18 02:29:36;;;;;;;25.85;2.72;;;;;;;23.69;46.89;100177.28;7309383;19;159317;-39
2022/05/18 02:32:02;;;;;;;24.80;2.47;;;;;;;23.55;47.12;100184.75;7310674;19;159896;-38
2022/05/18 02:34:28;;;;;;;26.05;2.72;;;;;;;23.53;46.38;100186.69;7312676;19;129199;-42
2022/05/18 02:36:53;;;;;;;24.20;2.63;;;;;;;23.51;46.31;100197.31;7309080;19;140766;-37
2022/05/18 02:39:21;;;;;;;29.07;3.07;;;;;;;23.53;46.73;100190.16;7311418;19;158394;-39
2022/05/18 02:41:48;;;;;;;30.02;3.00;;;;;;;23.57;46.19;100194.13;7308788;19;130326;-37
2022/05/18 02:44:14;;;;;;;26.48;2.78;;;;;;;23.57;46.47;100186.25;7312442;19;130658;-37
2022/05/18 02:46:39;;;;;;;32.63;3.67;;;;;;;23.77;46.69;100185.28;7309170;19;130146;-37
2022/05/18 02:49:04;;;;;;;40.80;4.17;;;;;;;23.95;49.05;100186.25;7307768;19;157492;-43
2022/05/18 02:51:30;;;;;;;24.27;2.72;;;;;;;24.08;49.70;100186.81;7308247;19;147257;-41
2022/05/18 02:53:55;;;;;;;28.95;3.17;;;;;;;24.16;49.75;100186.91;7310847;19;129443;-38
2022/05/18 02:56:23;;;;;;;47.20;4.97;;;;;;;24.20;50.58;100190.09;7305780;19;153116;-39
2022/05/18 02:58:50;;;;;;;39.53;3.75;;;;;;;24.25;50.02;100191.34;7311191;19;131151;-38
2022/05/18 03:01:22;;;;;;;45.50;4.47;;;;;;;24.26;50.69;100192.97;7301375;19;130510;-38
2022/05/18 03:03:48;;;;;;;20.23;2.30;;;;;;;24.31;49.88;100192.56;7309069;19;129656;-38
2022/05/18 03:06:16;;;;;;;63.20;5.75;;;;;;;24.31;50.42;100195.19;7308333;19;129401;-40
2022/05/18 03:08:43;;;;;;;30.27;3.33;;;;;;;24.30;50.21;100194.38;7310033;19;130240;-38
2022/05/18 03:11:09;;;;;;;25.05;2.75;;;;;;;24.30;50.30;100199.63;7311104;19;130163;-37
2022/05/18 03:13:35;;;;;;;26.02;2.80;;;;;;;23.87;46.73;100199.25;7310933;19;129239;-36
2022/05/18 03:16:01;;;;;;;42.60;3.65;;;;;;;23.58;46.86;100194.97;7308981;19;130993;-40
2022/05/18 03:18:26;;;;;;;33.85;3.33;;;;;;;23.44;46.72;100193.56;7310452;19;130179;-40
2022/05/18 03:23:37;;;;;;;23.25;2.47;;;;;;;23.53;46.40;100219.03;7311763;19;129086;-38
2022/05/18 03:26:08;;;;;;;33.20;3.30;;;;;;;23.46;46.13;100201.31;7308918;19;130825;-37
2022/05/18 03:28:33;;;;;;;31.08;3.05;;;;;;;23.54;46.30;100215.41;7309171;19;129311;-40
2022/05/18 03:30:58;;;;;;;12.35;1.45;;;;;;;23.46;46.46;100199.53;7310778;19;130338;-39
2022/05/18 03:33:24;;;;;;;25.90;2.83;;;;;;;23.91;49.24;100216.41;7309864;19;139570;-39
2022/05/18 03:35:50;;;;;;;23.33;2.45;;;;;;;24.07;50.03;100224.56;7307169;19;129263;-37
2022/05/18 03:38:17;;;;;;;28.33;3.07;;;;;;;24.12;49.22;100227.59;7316683;19;130394;-39
2022/05/18 03:40:42;;;;;;;29.20;3.15;;;;;;;24.22;50.15;100222.31;7324270;19;130188;-38
2022/05/18 03:43:07;;;;;;;22.67;2.65;;;;;;;24.23;49.72;100224.81;7321743;19;155555;-38
2022/05/18 03:45:33;;;;;;;16.70;2.30;;;;;;;24.27;49.46;100226.19;7322503;19;152877;-36
2022/05/18 03:47:59;;;;;;;18.67;2.25;;;;;;;24.32;50.30;100223.97;7324418;19;129405;-39
2022/05/18 03:50:28;;;;;;;27.90;2.93;;;;;;;24.30;49.98;100231.16;7322942;19;129642;-37
2022/05/18 03:52:54;;;;;;;18.25;2.13;;;;;;;24.32;50.12;100229.22;7323285;19;131156;-38
2022/05/18 03:55:20;;;;;;;40.28;4.25;;;;;;;24.33;49.80;100225.63;7322869;19;130787;-38
2022/05/18 03:57:45;;;;;;;17.03;2.07;;;;;;;24.27;49.67;100213.06;7322577;19;130635;-38
2022/05/18 04:00:11;;;;;;;42.13;4.23;;;;;;;23.75;47.21;100231.84;7319728;19;156092;-40
2022/05/18 04:02:36;;;;;;;33.13;3.57;;;;;;;23.53;46.90;100220.81;7323697;19;130716;-38
2022/05/18 04:05:01;;;;;;;23.80;2.87;;;;;;;23.52;46.71;100233.09;7319349;19;143586;-38
2022/05/18 04:07:26;;;;;;;28.60;2.72;;;;;;;23.53;46.26;100239.19;7317225;19;158354;-40
2022/05/18 04:09:52;;;;;;;23.80;2.33;;;;;;;23.54;46.23;100235.56;7322027;19;158550;-39
2022/05/18 04:12:17;;;;;;;30.00;3.13;;;;;;;23.51;46.51;100236.69;7321763;19;155415;-40
2022/05/18 04:14:42;;;;;;;31.40;3.08;;;;;;;23.51;46.22;100244.56;7321801;19;154172;-40
2022/05/18 04:17:07;;;;;;;27.97;2.73;;;;;;;23.52;45.91;100243.59;7317788;19;158723;-41
2022/05/18 04:19:33;;;;;;;32.38;3.47;;;;;;;23.88;48.88;100253.41;7322207;19;129526;-41
2022/05/18 04:21:58;;;;;;;14.30;1.60;;;;;;;24.05;49.71;100252.75;7322660;19;129007;-41
2022/05/18 04:24:24;;;;;;;35.83;3.83;;;;;;;24.12;50.05;100253.88;7321944;19;134721;-37
2022/05/18 04:26:52;;;;;;;34.05;3.47;;;;;;;24.17;49.70;100251.66;7317537;19;130489;-37
2022/05/18 04:29:17;;;;;;;21.43;2.53;;;;;;;24.13;49.96;100237.13;7319926;19;142912;-40
2022/05/18 04:31:42;;;;;;;35.07;3.80;;;;;;;24.32;50.28;100252.88;7320227;19;154203;-38
2022/05/18 04:34:08;;;;;;;31.52;3.30;;;;;;;24.29;48.95;100261.03;7321576;19;129439;-39
2022/05/18 04:36:33;;;;;;;34.45;3.67;;;;;;;24.32;50.80;100255.50;7316486;19;131885;-40
2022/05/18 04:38:58;;;;;;;13.83;1.60;;;;;;;24.34;50.46;100266.72;7320568;19;158578;-39
2022/05/18 04:41:24;;;;;;;27.80;2.65;;;;;;;24.32;50.85;100270.44;7318821;19;154569;-39
2022/05/18 04:43:49;;;;;;;29.00;3.30;;;;;;;24.06;47.27;100269.38;7322371;19;129698;-38
2022/05/18 04:46:14;;;;;;;41.72;4.43;;;;;;;23.61;46.51;100279.53;7316626;19;158529;-38
2022/05/18 04:48:41;;;;;;;27.53;3.07;;;;;;;23.52;47.11;100279.53;7316922;19;159237;-40
2022/05/18 04:51:06;;;;;;;27.00;2.58;;;;;;;23.52;46.16;100285.59;7310404;19;128878;-38
2022/05/18 04:53:35;;;;;;;28.75;2.83;;;;;;;23.50;46.48;100281.44;7312133;19;129847;-41
2022/05/18 04:56:01;;;;;;;30.15;3.15;;;;;;;23.52;45.78;100269.03;7306600;19;132103;-38
2022/05/18 04:58:26;;;;;;;29.30;2.90;;;;;;;23.49;46.15;100272.72;7311732;19;130530;-37
2022/05/18 05:00:58;;;;;;;37.07;3.50;;;;;;;23.57;45.87;100282.56;7308880;19;151980;-38
2022/05/18 05:03:24;;;;;;;29.48;2.90;;;;;;;23.90;47.82;100279.56;7311608;19;129063;-39
2022/05/18 05:05:49;;;;;;;29.85;2.88;;;;;;;24.05;49.61;100289.53;7312089;19;129524;-38
2022/05/18 05:08:14;;;;;;;36.67;3.53;;;;;;;24.10;49.20;100292.59;7308368;19;157703;-40
2022/05/18 05:10:40;;;;;;;33.63;3.23;;;;;;;24.18;48.79;100294.53;7313119;19;130286;-36
2022/05/18 05:13:05;;;;;;;57.05;5.70;;;;;;;24.23;50.09;100290.50;7310360;19;129760;-39
2022/05/18 05:15:31;;;;;;;63.17;5.90;;;;;;;24.29;49.72;100282.06;7305115;19;159159;-39
2022/05/18 05:17:56;;;;;;;90.65;9.32;;;;;;;24.31;49.97;100289.81;7288648;19;129525;-43
2022/05/18 05:20:22;;;;;;;77.23;7.57;;;;;;;24.21;49.95;100274.03;7290829;19;130554;-39
2022/05/18 05:22:47;;;;;;;16.53;2.17;;;;;;;24.31;50.20;100282.72;7304748;19;130738;-40
2022/05/18 05:25:14;;;;;;;34.67;3.47;;;;;;;24.31;49.91;100285.38;7303695;19;130717;-41
2022/05/18 05:27:39;;;;;;;;;;;;;;;24.34;50.19;100274.59;7303553;19;129798;-40
2022/05/18 05:30:05;;;;;;;63.90;6.45;;;;;;;23.68;46.72;100283.28;7306087;19;128982;-38
2022/05/18 05:32:31;;;;;;;30.42;3.08;;;;;;;23.58;47.14;100292.94;7303445;19;132517;-39
2022/05/18 05:34:56;;;;;;;17.93;2.03;;;;;;;23.54;46.50;100286.28;7313285;19;129624;-37
2022/05/18 05:37:22;;;;;;;22.05;2.45;;;;;;;23.52;46.24;100287.41;7306561;19;158475;-40
2022/05/18 05:39:47;;;;;;;16.75;1.92;;;;;;;23.51;46.34;100293.59;7312365;19;155035;-38
2022/05/18 05:42:12;;;;;;;31.13;3.37;;;;;;;23.49;46.25;100290.25;7311340;19;155362;-40
2022/05/18 05:44:38;;;;;;;22.95;2.65;;;;;;;23.51;46.15;100294.44;7311989;19;130221;-40
2022/05/18 05:47:03;;;;;;;34.57;3.47;;;;;;;23.72;49.01;100299.56;7304007;19;129981;-39
2022/05/18 05:49:29;;;;;;;12.23;1.60;;;;;;;23.93;49.37;100292.41;7313684;19;129050;-40
2022/05/18 05:51:55;;;;;;;24.23;2.77;;;;;;;24.12;49.75;100298.53;7312213;19;129623;-41
2022/05/18 05:54:21;;;;;;;29.77;3.17;;;;;;;24.14;49.05;100295.75;7311311;19;158486;-40
2022/05/18 05:56:46;;;;;;;;;;;;;;;24.30;50.07;100299.50;7309243;19;129413;-41
2022/05/18 05:59:13;;;;;;;34.00;3.80;;;;;;;24.22;50.07;100295.88;7311537;19;155069;-40
2022/05/18 06:01:39;;;;;;;;;;;;;;;24.37;50.02;100305.00;7310591;19;131302;-41
2022/05/18 06:04:07;;;;;;;40.83;4.53;;;;;;;24.30;49.32;100302.13;7311807;19;129225;-40
2022/05/18 06:06:34;;;;;;;62.20;6.28;;;;;;;24.33;50.58;100304.47;7294670;19;131230;-38
2022/05/18 06:09:00;;;;;;;28.70;3.22;;;;;;;24.26;50.53;100294.66;7310997;19;129225;-38
2022/05/18 06:11:27;;;;;;;26.38;2.85;;;;;;;24.29;50.00;100308.34;7310971;19;155117;-37
2022/05/18 06:13:52;;;;;;;22.52;2.35;;;;;;;23.74;46.58;100316.03;7311901;19;130631;-37
2022/05/18 06:16:17;;;;;;;115.90;11.35;;;;;;;23.56;46.30;100320.28;7302042;19;137205;-38
2022/05/18 06:18:43;;;;;;;23.80;2.47;;;;;;;23.51;46.57;100320.69;7310633;19;154339;-37
2022/05/18 06:21:08;;;;;;;27.67;2.97;;;;;;;23.54;46.10;100324.81;7310614;19;153908;-37
2022/05/18 06:23:33;;;;;;;22.85;2.65;;;;;;;23.54;46.47;100324.81;7307544;19;130510;-37
2022/05/18 06:26:03;;;;;;;31.33;3.60;;;;;;;23.52;46.13;100330.19;7308799;19;130184;-38
2022/05/18 06:28:29;;;;;;;50.55;5.28;;;;;;;23.52;46.22;100332.81;7309153;19;128879;-37
2022/05/18 06:30:54;;;;;;;22.13;2.55;;;;;;;23.58;45.77;100339.34;7312365;19;128982;-40
2022/05/18 06:33:20;;;;;;;30.65;3.45;;;;;;;23.57;46.38;100338.50;7311084;19;129265;-37
2022/05/18 06:35:47;;;;;;;25.40;2.60;;;;;;;23.58;46.34;100342.81;7306881;19;130371;-39
2022/05/18 06:38:15;;;;;;;32.40;3.25;;;;;;;23.58;46.25;100334.94;7308951;19;129888;-37
2022/05/18 06:43:25;;;;;;;157.70;14.30;;;;;;;23.62;46.09;100338.94;7301791;19;129778;-37
2022/05/18 06:45:51;;;;;;;16.57;2.07;;;;;;;23.53;46.08;100329.25;7302942;19;130128;-37
2022/05/18 06:48:16;;;;;;;26.95;2.83;;;;;;;23.62;45.32;100352.06;7306818;19;155105;-37
2022/05/18 06:50:41;;;;;;;31.73;3.23;;;;;;;23.59;45.52;100344.47;7299447;19;154498;-37
2022/05/18 06:53:07;;;;;;;33.40;3.55;;;;;;;23.62;45.55;100338.94;7308641;19;158251;-37
2022/05/18 06:55:32;;;;;;;62.53;5.80;;;;;;;23.63;45.44;100350.28;7303375;19;159303;-37
2022/05/18 06:57:58;;;;;;;26.40;2.90;;;;;;;23.63;45.47;100353.75;7304174;19;154748;-37
2022/05/18 07:00:23;;;;;;;34.95;3.35;;;;;;;23.63;45.45;100356.38;7307103;19;130146;-37
2022/05/18 07:02:49;;;;;;;23.70;2.37;;;;;;;23.65;45.22;100358.84;7303918;19;132137;-36
2022/05/18 07:05:14;;;;;;;34.00;3.20;;;;;;;23.66;45.11;100361.34;7309202;19;131275;-37
2022/05/18 07:07:39;;;;;;;40.55;3.80;;;;;;;23.67;45.33;100363.00;7305262;19;153677;-37
2022/05/18 07:10:05;;;;;;;31.10;3.28;;;;;;;23.64;45.34;100360.63;7307699;19;148353;-37
2022/05/18 07:12:31;;;;;;;27.53;2.97;;;;;;;23.64;44.89;100358.00;7307054;19;129160;-37
2022/05/18 07:14:58;;;;;;;28.85;2.90;;;;;;;23.65;45.33;100364.09;7302617;19;130212;-40
2022/05/18 07:17:23;;;;;;;24.92;2.72;;;;;;;23.58;45.36;100348.06;7305063;19;129990;-37
2022/05/18 07:19:48;;;;;;;33.88;3.33;;;;;;;23.68;44.83;100359.41;7305244;19;153911;-38
2022/05/18 07:22:14;;;;;;;28.00;3.03;;;;;;;23.69;45.21;100361.06;7309014;19;158487;-37
2022/05/18 07:24:39;;;;;;;35.67;3.53;;;;;;;23.69;45.33;100361.06;7302679;19;153434;-41
2022/05/18 07:27:04;;;;;;;23.20;2.50;;;;;;;23.68;45.24;100369.91;7306429;19;154530;-39
2022/05/18 07:29:29;;;;;;;17.50;1.97;;;;;;;23.69;45.29;100370.72;7310636;19;129362;-37
2022/05/18 07:32:12;;;;;;;30.23;3.00;;;;;;;23.68;45.33;100367.28;7309031;19;151826;-37
2022/05/18 07:34:38;;;;;;;17.40;2.15;;;;;;;23.71;44.69;100369.66;7311180;19;130872;-37
2022/05/18 07:37:05;;;;;;;27.15;3.03;;;;;;;23.71;45.08;100374.91;7304022;19;131334;-37
2022/05/18 07:39:31;;;;;;;25.75;2.63;;;;;;;23.63;44.81;100360.78;7310728;19;129133;-37
2022/05/18 07:41:59;;;;;;;21.20;2.53;;;;;;;23.72;45.03;100371.28;7311080;19;130553;-37
2022/05/18 07:44:26;;;;;;;21.10;2.60;;;;;;;23.68;45.14;100367.28;7307257;19;130071;-39
2022/05/18 07:46:51;;;;;;;17.38;2.05;;;;;;;23.73;44.72;100372.97;7307077;19;129037;-38
2022/05/18 07:49:17;;;;;;;27.97;2.97;;;;;;;23.75;44.97;100367.59;7311117;19;129430;-39
2022/05/18 07:51:43;;;;;;;86.27;7.47;;;;;;;23.75;44.57;100370.22;7308352;19;129340;-39
2022/05/18 07:54:10;;;;;;;34.70;3.67;;;;;;;23.67;44.88;100365.63;7308396;19;130280;-38
2022/05/18 07:56:36;;;;;;;53.33;4.80;;;;;;;23.75;44.27;100371.03;7306522;19;129212;-37
2022/05/18 07:59:03;;;;;;;21.60;2.60;;;;;;;23.74;45.01;100372.00;7309321;19;129519;-37
2022/05/18 08:01:29;;;;;;;22.88;2.63;;;;;;;23.75;44.41;100359.72;7308464;19;130741;-38
2022/05/18 08:03:55;;;;;;;22.27;2.47;;;;;;;23.75;44.45;100357.88;7303867;19;131089;-39
2022/05/18 08:06:21;;;;;;;27.73;2.70;;;;;;;23.76;44.56;100361.34;7307652;19;129486;-37
2022/05/18 08:08:47;;;;;;;19.20;1.90;;;;;;;23.76;44.55;100364.81;7302248;19;130829;-39
2022/05/18 08:16:42;;;;;;;23.83;2.63;;;;;;;23.76;44.58;100372.69;7307808;19;129117;-39
2022/05/18 08:19:12;;;;;;;23.77;2.75;;;;;;;23.76;44.09;100361.34;7309182;19;129290;-37
2022/05/18 08:21:39;;;;;;;24.02;2.53;;;;;;;23.77;44.28;100365.63;7308773;19;129789;-37
2022/05/18 08:24:05;;;;;;;95.40;9.48;;;;;;;23.78;44.23;100370.78;7309359;19;130360;-37
2022/05/18 08:26:32;;;;;;;17.27;2.13;;;;;;;23.77;44.79;100365.63;7311044;19;129908;-37
2022/05/18 08:28:58;;;;;;;;;;;;;;;23.76;44.08;100364.81;7314562;19;128883;-37
2022/05/18 08:31:24;;;;;;;32.47;3.38;;;;;;;23.78;44.28;100365.53;7311949;19;129526;-37
2022/05/18 08:33:50;;;;;;;19.70;2.10;;;;;;;23.79;44.80;100366.34;7315917;19;129408;-38
2022/05/18 08:36:18;;;;;;;15.05;2.00;;;;;;;23.77;44.61;100361.22;7307401;19;129278;-38
2022/05/18 08:38:50;;;;;;;20.60;2.05;;;;;;;23.79;44.76;100363.72;7315108;19;129317;-37
2022/05/18 08:41:19;;;;;;;;;;;;;;;23.75;44.66;100365.78;7313773;19;129491;-40
2022/05/18 08:43:51;;;;;;;19.42;2.20;;;;;;;23.77;44.33;100363.84;7315610;19;130432;-40
2022/05/18 08:46:38;;;;;;;41.72;4.45;;;;;;;23.78;44.52;100365.53;7307116;19;129051;-38
2022/05/18 08:49:46;;;;;;;25.65;2.72;;;;;;;23.79;44.11;100364.53;7316497;19;129322;-38
2022/05/18 08:52:37;;;;;;;34.22;3.95;;;;;;;23.78;44.60;100365.53;7315251;19;129143;-39
2022/05/18 08:55:21;;;;;;;15.50;1.75;;;;;;;23.76;44.57;100366.59;7314901;19;130126;-40
2022/05/18 08:57:49;;;;;;;27.38;3.15;;;;;;;23.71;44.05;100353.06;7315354;19;129152;-40
2022/05/18 09:00:24;;;;;;;23.50;2.67;;;;;;;23.77;44.29;100358.59;7313858;19;128947;-39
2022/05/18 09:03:02;;;;;;;26.25;2.92;;;;;;;23.79;44.00;100363.72;7315103;19;129203;-40
2022/05/18 09:05:31;;;;;;;29.58;3.10;;;;;;;23.81;44.12;100365.25;7314444;19;129276;-38
2022/05/18 09:08:03;;;;;;;19.83;1.98;;;;;;;23.82;44.33;100361.66;7313163;19;128968;-40
2022/05/18 09:10:41;;;;;;;24.10;2.35;;;;;;;23.83;44.34;100359.84;7314916;19;129767;-38
2022/05/18 09:13:07;;;;;;;18.17;2.17;;;;;;;23.81;44.34;100354.75;7314846;19;129786;-35
2022/05/18 09:15:40;;;;;;;45.07;4.70;;;;;;;23.79;43.95;100356.66;7313082;19;129184;-40
2022/05/18 09:18:20;;;;;;;21.10;2.58;;;;;;;23.81;44.09;100353.91;7315092;19;128990;-41
2022/05/18 09:20:57;;;;;;;27.50;2.80;;;;;;;23.81;43.92;100354.75;7315729;19;129149;-40
2022/05/18 09:23:41;;;;;;;;;;;;;;;23.69;44.26;100345.31;7315931;19;129025;-38
2022/05/18 09:26:30;;;;;;;19.67;2.05;;;;;;;23.81;43.79;100360.00;7312004;19;129749;-39
2022/05/18 09:29:08;;;;;;;25.40;2.70;;;;;;;23.80;43.93;100358.31;7316500;19;129210;-41
2022/05/18 09:31:49;;;;;;;21.85;2.63;;;;;;;23.80;44.10;100353.06;7313969;19;128898;-40
2022/05/18 09:34:40;;;;;;;24.70;2.60;;;;;;;23.79;44.51;100361.09;7314658;19;130398;-39
2022/05/18 09:37:24;;;;;;;22.00;2.42;;;;;;;23.81;44.43;100364.41;7308566;19;129385;-41
2022/05/18 09:40:00;;;;;;;22.50;2.40;;;;;;;23.80;44.61;100374.06;7314549;19;128919;-37
2022/05/18 09:42:33;;;;;;;20.55;2.42;;;;;;;23.82;43.89;100364.28;7312306;19;130823;-39
2022/05/18 09:45:04;;;;;;;25.80;2.58;;;;;;;23.83;44.51;100367.75;7314014;19;131727;-37
2022/05/18 09:47:36;;;;;;;19.02;2.05;;;;;;;23.82;43.93;100366.91;7310712;19;129834;-40
2022/05/18 09:50:06;;;;;;;26.35;2.97;;;;;;;23.84;43.79;100364.13;7313062;19;131153;-40
2022/05/18 09:52:34;;;;;;;24.17;2.85;;;;;;;23.83;43.70;100352.78;7307897;19;129354;-38
2022/05/18 09:55:02;;;;;;;36.80;3.70;;;;;;;23.84;44.39;100358.88;7312581;19;131389;-39
2022/05/18 09:58:10;;;;;;;23.08;2.17;;;;;;;23.84;44.05;100364.97;7309070;19;129794;-40
2022/05/18 10:00:37;;;;;;;28.83;2.85;;;;;;;23.82;43.81;100360.81;7311504;19;129967;-39
2022/05/18 10:08:53;;;;;;;19.90;2.33;;;;;;;23.82;44.24;100352.94;7311853;19;129533;-36
2022/05/18 10:11:38;;;;;;;17.27;1.83;;;;;;;23.83;44.07;100352.78;7310474;19;129245;-40
2022/05/18 10:14:25;;;;;;;36.70;3.80;;;;;;;23.85;43.83;100345.63;7312466;19;128824;-38
2022/05/18 10:17:05;;;;;;;18.70;2.03;;;;;;;23.86;43.96;100356.97;7310423;19;131379;-39
2022/05/18 10:19:36;;;;;;;19.80;2.03;;;;;;;23.87;44.25;100354.19;7313663;19;129712;-39
2022/05/18 10:22:07;;;;;;;33.13;3.28;;;;;;;23.85;44.26;100357.94;7312934;19;129341;-40
2022/05/18 10:24:39;;;;;;;20.60;2.33;;;;;;;23.85;44.28;100350.88;7313332;19;129342;-39
2022/05/18 10:27:17;;;;;;;30.77;3.25;;;;;;;23.77;44.48;100336.75;7309126;19;129264;-38
2022/05/18 10:29:51;;;;;;;19.05;2.03;;;;;;;23.84;44.60;100354.47;7313092;19;129390;-40
2022/05/18 10:32:27;;;;;;;41.63;4.63;;;;;;;23.84;43.75;100351.84;7311959;19;130824;-39
2022/05/18 10:34:55;;;;;;;19.23;2.03;;;;;;;23.82;44.44;100351.16;7313067;19;128992;-39
2022/05/18 10:37:33;;;;;;;26.92;3.08;;;;;;;23.85;44.40;100347.44;7308361;19;129423;-41
2022/05/18 10:40:09;;;;;;;32.35;2.90;;;;;;;23.85;44.08;100345.63;7312497;19;129266;-37
2022/05/18 10:42:51;;;;;;;23.40;2.45;;;;;;;23.86;43.87;100346.44;7311612;19;129637;-37
2022/05/18 10:45:35;;;;;;;41.92;4.32;;;;;;;23.86;44.22;100349.06;7310426;19;130051;-38
2022/05/18 10:48:27;;;;;;;17.73;1.92;;;;;;;23.86;44.16;100347.28;7307755;19;129368;-39
2022/05/18 10:51:06;;;;;;;16.27;1.75;;;;;;;23.88;44.46;100344.53;7311463;19;129499;-39
2022/05/18 10:53:35;;;;;;;16.23;1.67;;;;;;;23.89;44.51;100343.53;7311913;19;128690;-39
2022/05/18 10:56:08;;;;;;;9.95;1.30;;;;;;;23.89;44.32;100335.66;7309902;19;128741;-41
2022/05/18 10:58:45;;;;;;;11.45;1.50;;;;;;;23.80;44.20;100326.00;7311665;19;132479;-40
2022/05/18 11:01:28;;;;;;;24.98;2.70;;;;;;;23.80;44.42;100321.56;7310574;19;131435;-39
2022/05/18 11:04:11;;;;;;;6.53;1.00;;;;;;;23.77;43.64;100321.84;7312142;19;128960;-40
2022/05/18 11:06:39;;;;;;;25.23;2.55;;;;;;;23.85;44.26;100324.59;7304514;19;130103;-41
2022/05/18 11:09:18;;;;;;;18.42;2.03;;;;;;;23.86;43.97;100326.28;7312199;19;129113;-41
2022/05/18 11:12:11;;;;;;;18.23;2.20;;;;;;;23.87;43.54;100322.69;7309896;19;129624;-40
2022/05/18 11:15:12;;;;;;;26.13;2.60;;;;;;;23.87;44.16;100325.31;7311449;19;129135;-40
2022/05/18 11:18:04;;;;;;;27.70;2.58;;;;;;;23.87;43.65;100317.44;7309018;19;129355;-40
2022/05/18 11:20:35;;;;;;;14.95;1.85;;;;;;;23.88;43.91;100319.06;7310680;19;130327;-40
2022/05/18 11:23:41;;;;;;;17.63;1.85;;;;;;;23.89;43.82;100315.50;7310053;19;130083;-40
2022/05/18 11:26:24;;;;;;;24.13;2.50;;;;;;;23.86;43.93;100315.78;7309136;19;129180;-39
2022/05/18 11:29:01;;;;;;;7.13;1.13;;;;;;;23.89;44.15;100315.50;7307726;19;131039;-40
2022/05/18 11:31:55;;;;;;;26.05;2.78;;;;;;;23.88;43.41;100313.81;7310248;19;130379;-40
2022/05/18 11:34:30;;;;;;;25.65;2.50;;;;;;;23.88;43.83;100313.00;7309046;19;129901;-37
2022/05/18 11:37:19;;;;;;;22.60;2.40;;;;;;;23.88;43.53;100308.56;7308059;19;129318;-40
2022/05/18 11:40:01;;;;;;;20.15;2.17;;;;;;;23.93;44.04;100311.63;7310340;19;128959;-40